Main page
METAR-TAF:

METAR-TAF

Airports :

Edinburgh Airport

Edinburgh, Scotland

latitude: 55-57N, longitude: 003-21W, elevation: 41 m

Current weather observation

The report was made 24 minutes ago, at 04:50 UTC
Wind 3 kt from variable directions
Temperature 12°C
Humidity 94%
Pressure 1012 hPa
Visibility 10 km or more
Scattered clouds at a height of 2900 ft
light rain showers

METAR: EGPH 170450Z VRB03KT 9999 -SHRA SCT029 12/11 Q1012

Time: 06:14 (05:14 UTC)

Forecast

The report was made 6 hours and 12 minutes ago, at 23:02 UTC
Forecast valid from 17 at 00 UTC to 17 at 24 UTC
Wind 6 kt from the Southwest
Visibility 10 km or more
Few clouds at a height of 4000 ft
Probability 30% :
Temporary
from 17 at 07 UTC to 17 at 15 UTC
Visibility: 7000 m
rain showers

TAF: EGPH 162302Z 1700/1724 23006KT 9999 FEW040 PROB30 TEMPO 1707/1715 7000 SHRA

Weather observations and forecasts of more than 4000 airports (METAR and TAF reports).

The available stations are represented by yellow and red dots on the map.

Hover mouse over dot to see the name of the station.

Then click to see weather observations and forecasts.

To change the map : click on the green buttons with a black cross to zoom in, on the green button with a dash to zoom out, or on the green arrows for adjacent maps.


METAR-TAF: